Time;durP1;ratioP1;P1;durP2;ratioP2;P2;SDS_P1;SDS_P2;PMS_P1;PMS_P2;Temp;Humidity;BMP_temperature;BMP_pressure;BME280_temperature;BME280_humidity;BME280_pressure;Samples;Min_cycle;Max_cycle;Signal;HPM_P1;HPM_P2
2022/09/14 00:01:56;;;;;;;1999.90;999.90;;;12.10;99.90;;;;;;5071528;28;20517;-64
2022/09/14 00:04:22;;;;;;;1999.90;999.90;;;12.10;99.90;;;;;;5069673;28;20128;-64
2022/09/14 00:06:48;;;;;;;1999.90;999.90;;;12.10;99.90;;;;;;5081952;28;20071;-64
2022/09/14 00:09:16;;;;;;;1999.90;999.90;;;12.20;99.90;;;;;;5101960;28;20488;-64
2022/09/14 00:11:42;;;;;;;1999.90;999.90;;;12.20;99.90;;;;;;5063145;28;20084;-64
2022/09/14 00:14:08;;;;;;;1999.90;999.90;;;12.20;99.90;;;;;;5049915;28;20079;-65
2022/09/14 00:16:37;;;;;;;1999.90;999.90;;;12.30;99.90;;;;;;5089611;28;20075;-65
2022/09/14 00:19:06;;;;;;;1999.90;999.90;;;12.30;99.90;;;;;;5089304;28;20071;-64
2022/09/14 00:21:37;;;;;;;1999.90;999.90;;;12.30;99.90;;;;;;5084261;28;20519;-64
2022/09/14 00:24:05;;;;;;;1999.90;999.90;;;12.30;99.90;;;;;;5064624;28;20040;-64
2022/09/14 00:26:31;;;;;;;1999.90;999.90;;;12.30;99.90;;;;;;5066425;28;20055;-64
2022/09/14 00:28:59;;;;;;;1999.90;999.90;;;12.30;99.90;;;;;;5070752;28;20127;-64
2022/09/14 00:31:25;;;;;;;1999.90;999.90;;;12.30;99.90;;;;;;5052073;28;20052;-64
2022/09/14 00:33:52;;;;;;;1999.90;999.90;;;12.30;99.90;;;;;;5053867;28;20046;-64
2022/09/14 00:36:23;;;;;;;1999.90;999.90;;;12.30;99.90;;;;;;5095600;28;20040;-64
2022/09/14 00:38:50;;;;;;;1999.90;999.90;;;12.30;99.90;;;;;;5086997;28;20048;-65
2022/09/14 00:41:21;;;;;;;1999.90;999.90;;;12.30;99.90;;;;;;5071703;28;20050;-64
2022/09/14 00:44:02;;;;;;;1999.90;999.90;;;12.30;99.90;;;;;;5070662;28;20032;-64
2022/09/14 00:46:35;;;;;;;1999.90;999.90;;;12.30;99.90;;;;;;5049249;28;20049;-64
2022/09/14 00:49:03;;;;;;;1999.90;999.90;;;12.30;99.90;;;;;;5071672;28;20483;-64
2022/09/14 00:51:31;;;;;;;1999.90;999.90;;;12.30;99.90;;;;;;5074472;28;20441;-64
2022/09/14 00:53:59;;;;;;;1999.90;999.90;;;12.20;99.90;;;;;;5069543;28;20070;-64
2022/09/14 00:56:25;;;;;;;1999.90;999.90;;;12.20;99.90;;;;;;5083109;28;20181;-64
2022/09/14 00:58:54;;;;;;;1999.90;999.90;;;12.20;99.90;;;;;;5087685;28;20114;-64
2022/09/14 01:01:19;;;;;;;1999.90;999.90;;;12.20;99.90;;;;;;5083482;28;20044;-64
2022/09/14 01:03:45;;;;;;;1999.90;999.90;;;12.10;99.90;;;;;;5058014;28;20069;-64
2022/09/14 01:06:36;;;;;;;1999.90;999.90;;;12.10;99.90;;;;;;5067979;28;20040;-64
2022/09/14 01:09:22;;;;;;;1999.90;999.90;;;12.00;99.90;;;;;;5067253;28;20071;-64
2022/09/14 01:12:00;;;;;;;1999.90;999.90;;;12.00;99.90;;;;;;5070073;28;20116;-64
2022/09/14 01:15:03;;;;;;;1999.90;999.90;;;12.00;99.90;;;;;;5088524;28;20032;-64
2022/09/14 01:18:00;;;;;;;1999.90;999.90;;;12.00;99.90;;;;;;5055918;28;20040;-64
2022/09/14 01:20:35;;;;;;;1999.90;999.90;;;11.90;99.90;;;;;;5068979;28;20127;-64
2022/09/14 01:23:13;;;;;;;1999.90;999.90;;;11.90;99.90;;;;;;5070134;28;20044;-64
2022/09/14 01:26:04;;;;;;;1999.90;999.90;;;11.90;99.90;;;;;;5069998;28;20546;-64
2022/09/14 01:28:53;;;;;;;1999.90;999.90;;;11.80;99.90;;;;;;5047992;28;20047;-64
2022/09/14 01:31:37;;;;;;;1999.90;999.90;;;11.80;99.90;;;;;;5069042;28;20066;-64
2022/09/14 01:34:09;;;;;;;1999.90;999.90;;;11.80;99.90;;;;;;5096173;28;20109;-64
2022/09/14 01:36:38;;;;;;;1999.90;999.90;;;11.80;99.90;;;;;;5069311;28;20036;-65
2022/09/14 01:39:05;;;;;;;1999.90;999.90;;;11.80;99.90;;;;;;5087851;28;20047;-64
2022/09/14 01:41:33;;;;;;;1999.90;999.90;;;11.70;99.90;;;;;;5087225;28;20046;-64
2022/09/14 01:44:28;;;;;;;1999.90;999.90;;;11.80;99.90;;;;;;5079401;28;20046;-64
2022/09/14 01:47:00;;;;;;;1999.90;999.90;;;11.80;99.90;;;;;;5065051;28;20079;-64
2022/09/14 01:49:38;;;;;;;1999.90;999.90;;;11.80;99.90;;;;;;5084427;28;20488;-64
2022/09/14 01:52:06;;;;;;;1999.90;999.90;;;11.90;99.90;;;;;;5074762;28;20521;-64
2022/09/14 01:54:56;;;;;;;1999.90;999.90;;;11.90;99.90;;;;;;5063406;28;20040;-64
2022/09/14 01:57:41;;;;;;;1999.90;999.90;;;12.00;99.90;;;;;;5057702;28;20388;-64
2022/09/14 02:00:11;;;;;;;1999.90;999.90;;;12.00;99.90;;;;;;5083507;28;20040;-64
2022/09/14 02:02:45;;;;;;;1999.90;999.90;;;12.10;99.90;;;;;;5086974;28;20052;-64
2022/09/14 02:05:33;;;;;;;1999.90;999.90;;;12.20;99.90;;;;;;5065890;28;20061;-64
2022/09/14 02:07:59;;;;;;;1999.90;999.90;;;12.30;99.90;;;;;;5060670;28;20132;-64
2022/09/14 02:10:25;;;;;;;1999.90;999.90;;;12.30;99.90;;;;;;5084319;28;20494;-64
2022/09/14 02:12:52;;;;;;;1999.90;999.90;;;12.40;99.90;;;;;;5066250;28;20043;-64
2022/09/14 02:15:19;;;;;;;1999.90;999.90;;;12.40;99.90;;;;;;5064315;28;20074;-64
2022/09/14 02:17:45;;;;;;;1999.90;999.90;;;12.50;99.90;;;;;;5079017;28;20133;-65
2022/09/14 02:20:21;;;;;;;1999.90;999.90;;;12.50;99.90;;;;;;5087832;28;20796;-64
2022/09/14 02:22:47;;;;;;;1999.90;999.90;;;12.60;99.90;;;;;;5087501;28;20044;-64
2022/09/14 02:25:12;;;;;;;1999.90;999.90;;;12.60;99.90;;;;;;5086804;28;20047;-65
2022/09/14 02:27:38;;;;;;;1999.90;999.90;;;12.70;99.90;;;;;;5087236;28;20123;-64
2022/09/14 02:30:04;;;;;;;1999.90;999.90;;;12.70;99.90;;;;;;5062230;28;20093;-65
2022/09/14 02:32:58;;;;;;;1999.90;999.90;;;12.70;99.90;;;;;;5066657;28;20052;-64
2022/09/14 02:35:38;;;;;;;1999.90;999.90;;;12.70;99.90;;;;;;5038271;28;20048;-64
2022/09/14 02:38:16;;;;;;;1999.90;999.90;;;12.80;99.90;;;;;;5067070;28;20045;-64
2022/09/14 02:41:00;;;;;;;1999.90;999.90;;;12.80;99.90;;;;;;5086285;28;20132;-64
2022/09/14 02:43:46;;;;;;;1999.90;999.90;;;12.80;99.90;;;;;;5051808;28;20048;-64
2022/09/14 02:46:37;;;;;;;1999.90;999.90;;;12.90;99.90;;;;;;5082432;28;20737;-64
2022/09/14 02:49:21;;;;;;;1999.90;999.90;;;12.90;99.90;;;;;;5064138;28;20036;-64
2022/09/14 02:52:06;;;;;;;1999.90;999.90;;;12.90;99.90;;;;;;5069013;28;20560;-64
2022/09/14 02:54:49;;;;;;;1999.90;999.90;;;12.90;99.90;;;;;;5066489;28;20083;-64
2022/09/14 02:57:14;;;;;;;1999.90;999.90;;;13.00;99.90;;;;;;5056232;28;20437;-64
2022/09/14 02:59:40;;;;;;;1999.90;999.90;;;13.00;99.90;;;;;;5069095;28;20051;-64
2022/09/14 03:02:06;;;;;;;1999.90;999.90;;;13.00;99.90;;;;;;5052520;28;20040;-65
2022/09/14 03:04:31;;;;;;;1999.90;999.90;;;13.00;99.90;;;;;;5080618;28;20052;-65
2022/09/14 03:06:57;;;;;;;1999.90;999.90;;;13.00;99.90;;;;;;5087375;28;20040;-64
2022/09/14 03:09:22;;;;;;;1999.90;999.90;;;13.10;99.90;;;;;;5069149;28;20858;-65
2022/09/14 03:11:48;;;;;;;1999.90;999.90;;;13.10;99.90;;;;;;5083121;28;20039;-65
2022/09/14 03:14:13;;;;;;;1999.90;999.90;;;13.10;99.90;;;;;;5075878;28;20040;-64
2022/09/14 03:16:39;;;;;;;1999.90;999.90;;;13.10;99.90;;;;;;5072352;28;20517;-64
2022/09/14 03:19:05;;;;;;;1999.90;999.90;;;13.10;99.90;;;;;;5071702;28;20036;-65
2022/09/14 03:21:31;;;;;;;1999.90;999.90;;;13.20;99.90;;;;;;5060781;28;20503;-65
2022/09/14 03:23:57;;;;;;;1999.90;999.90;;;13.10;99.90;;;;;;5090476;28;20634;-65
2022/09/14 03:26:25;;;;;;;1999.90;999.90;;;13.20;99.90;;;;;;5097178;28;20036;-64
2022/09/14 03:28:53;;;;;;;1999.90;999.90;;;13.20;99.90;;;;;;5077723;28;20089;-64
2022/09/14 03:31:19;;;;;;;1999.90;999.90;;;13.20;99.90;;;;;;5090415;28;20087;-65
2022/09/14 03:33:44;;;;;;;1999.90;999.90;;;13.20;99.90;;;;;;5090656;28;20107;-64
2022/09/14 03:36:16;;;;;;;1999.90;999.90;;;13.20;99.90;;;;;;5072162;28;20074;-64
2022/09/14 03:38:47;;;;;;;1999.90;999.90;;;13.20;99.90;;;;;;5068694;28;20032;-64
2022/09/14 03:41:14;;;;;;;1999.90;999.90;;;13.20;99.90;;;;;;5095209;28;20047;-64
2022/09/14 03:43:41;;;;;;;1999.90;999.90;;;13.20;99.90;;;;;;5050856;28;20044;-65
2022/09/14 03:46:08;;;;;;;1999.90;999.90;;;13.20;99.90;;;;;;5055037;28;20165;-65
2022/09/14 03:48:34;;;;;;;1999.90;999.90;;;13.20;99.90;;;;;;5090592;28;20051;-64
2022/09/14 03:51:04;;;;;;;1999.90;999.90;;;13.20;99.90;;;;;;5071820;28;20092;-65
2022/09/14 03:53:30;;;;;;;1999.90;999.90;;;13.20;99.90;;;;;;5059326;28;20041;-64
2022/09/14 03:55:57;;;;;;;1999.90;999.90;;;13.20;99.90;;;;;;5103502;28;20038;-65
2022/09/14 03:58:23;;;;;;;1999.90;999.90;;;13.20;99.90;;;;;;5093992;28;20042;-64
2022/09/14 04:00:48;;;;;;;1999.90;999.90;;;13.20;99.90;;;;;;5089983;28;20114;-64
2022/09/14 04:03:14;;;;;;;1999.90;999.90;;;13.30;99.90;;;;;;5053840;28;20078;-64
2022/09/14 04:05:40;;;;;;;1999.90;999.90;;;13.30;99.90;;;;;;5054164;28;20416;-65
2022/09/14 04:08:06;;;;;;;1999.90;999.90;;;13.30;99.90;;;;;;5070800;28;20040;-64
2022/09/14 04:10:31;;;;;;;1999.90;999.90;;;13.30;99.90;;;;;;5077454;28;20489;-64
2022/09/14 04:12:58;;;;;;;1999.90;999.90;;;13.30;99.90;;;;;;5062884;28;20043;-65
2022/09/14 04:15:23;;;;;;;1999.90;999.90;;;13.30;99.90;;;;;;5042125;28;20837;-65
2022/09/14 04:17:50;;;;;;;1999.90;999.90;;;13.40;99.90;;;;;;5090041;28;20054;-64
2022/09/14 04:20:17;;;;;;;1999.90;999.90;;;13.30;99.90;;;;;;5077880;28;20049;-64
2022/09/14 04:22:44;;;;;;;1999.90;999.90;;;13.40;99.90;;;;;;5094668;28;20552;-65
2022/09/14 04:25:10;;;;;;;1999.90;999.90;;;13.40;99.90;;;;;;5094625;28;20093;-65
2022/09/14 04:27:36;;;;;;;1999.90;999.90;;;13.40;99.90;;;;;;5089406;28;20055;-65
2022/09/14 04:30:04;;;;;;;1999.90;999.90;;;13.40;99.90;;;;;;5062056;28;20047;-65
2022/09/14 04:32:29;;;;;;;1999.90;999.90;;;13.40;99.90;;;;;;5057134;28;20459;-65
2022/09/14 04:34:55;;;;;;;1999.90;999.90;;;13.40;99.90;;;;;;5071019;28;20044;-65
2022/09/14 04:37:20;;;;;;;1999.90;999.90;;;13.40;99.90;;;;;;5055124;28;20038;-65
2022/09/14 04:39:46;;;;;;;1999.90;999.90;;;13.40;99.90;;;;;;5057736;28;20043;-65
2022/09/14 04:42:11;;;;;;;1999.90;999.90;;;13.40;99.90;;;;;;5066533;28;20040;-64
2022/09/14 04:44:37;;;;;;;1999.90;999.90;;;13.40;99.90;;;;;;5069519;28;20055;-65
2022/09/14 04:47:02;;;;;;;1999.90;999.90;;;13.40;99.90;;;;;;5089171;28;20044;-65
2022/09/14 04:49:28;;;;;;;1999.90;999.90;;;13.40;99.90;;;;;;5070650;28;20126;-65
2022/09/14 04:51:54;;;;;;;1999.90;999.90;;;13.40;99.90;;;;;;5049851;28;20051;-64
2022/09/14 04:54:20;;;;;;;1999.90;999.90;;;13.40;99.90;;;;;;5085990;28;20469;-65
2022/09/14 04:56:46;;;;;;;1999.90;999.90;;;13.40;99.90;;;;;;5072218;28;20040;-65
2022/09/14 04:59:11;;;;;;;1999.90;999.90;;;13.50;99.90;;;;;;5082010;28;20031;-64
2022/09/14 05:01:40;;;;;;;1999.90;999.90;;;13.40;99.90;;;;;;5067215;28;20039;-64
2022/09/14 05:04:07;;;;;;;1999.90;999.90;;;13.50;99.90;;;;;;5069843;28;20391;-65
2022/09/14 05:06:35;;;;;;;1999.90;999.90;;;13.50;99.90;;;;;;5070550;28;20048;-64
2022/09/14 05:09:02;;;;;;;1999.90;999.90;;;13.40;99.90;;;;;;5068219;28;20043;-65
2022/09/14 05:11:31;;;;;;;1999.90;999.90;;;13.40;99.90;;;;;;5071816;28;20036;-65
2022/09/14 05:13:59;;;;;;;1999.90;999.90;;;13.40;99.90;;;;;;5059610;28;20039;-65
2022/09/14 05:16:30;;;;;;;1999.90;999.90;;;13.40;99.90;;;;;;5070230;28;20116;-65
2022/09/14 05:19:00;;;;;;;1999.90;999.90;;;13.40;99.90;;;;;;5053066;28;20040;-65
2022/09/14 05:21:27;;;;;;;1999.90;999.90;;;13.40;99.90;;;;;;5087484;28;20056;-65
2022/09/14 05:23:55;;;;;;;1999.90;999.90;;;13.40;99.90;;;;;;5073477;28;20051;-65
2022/09/14 05:26:22;;;;;;;1999.90;999.90;;;13.50;99.90;;;;;;5050659;28;20044;-65
2022/09/14 05:28:52;;;;;;;1999.90;999.90;;;13.50;99.90;;;;;;5088895;28;20377;-65
2022/09/14 05:31:18;;;;;;;1999.90;999.90;;;13.50;99.90;;;;;;5071025;28;20190;-65
2022/09/14 05:33:44;;;;;;;1999.90;999.90;;;13.50;99.90;;;;;;5087603;28;20414;-65
2022/09/14 05:36:10;;;;;;;1999.90;999.90;;;13.50;99.90;;;;;;5065870;28;20032;-65
2022/09/14 05:38:37;;;;;;;1999.90;999.90;;;13.50;99.90;;;;;;5070579;28;20487;-65
2022/09/14 05:41:04;;;;;;;1999.90;999.90;;;13.50;99.90;;;;;;5052686;28;20129;-65
2022/09/14 05:43:32;;;;;;;1999.90;999.90;;;13.60;99.90;;;;;;5071315;28;20054;-65
2022/09/14 05:46:06;;;;;;;1999.90;999.90;;;13.60;99.90;;;;;;5087159;28;20079;-65
2022/09/14 05:48:32;;;;;;;1999.90;999.90;;;13.60;99.90;;;;;;5097743;28;20494;-65
2022/09/14 05:51:04;;;;;;;1999.90;999.90;;;13.60;99.90;;;;;;5057510;28;20048;-65
2022/09/14 05:53:30;;;;;;;1999.90;999.90;;;13.60;99.90;;;;;;5068169;28;20050;-65
2022/09/14 05:56:04;;;;;;;1999.90;999.90;;;13.70;99.90;;;;;;5076814;28;20468;-65
2022/09/14 05:58:30;;;;;;;1999.90;999.90;;;13.70;99.90;;;;;;5084145;28;20042;-65
2022/09/14 06:00:57;;;;;;;1999.90;999.90;;;13.70;99.90;;;;;;5076393;28;20148;-65
2022/09/14 06:03:23;;;;;;;1999.90;999.90;;;13.70;99.90;;;;;;5076748;28;20146;-65
2022/09/14 06:05:48;;;;;;;1999.90;999.90;;;13.70;99.90;;;;;;5062109;28;20530;-65
2022/09/14 06:08:14;;;;;;;1999.90;999.90;;;13.80;99.90;;;;;;5090807;28;20071;-65
2022/09/14 06:10:39;;;;;;;1999.90;999.90;;;13.80;99.90;;;;;;5052003;28;20521;-65
2022/09/14 06:13:05;;;;;;;1999.90;999.90;;;13.80;99.90;;;;;;5060337;28;20423;-65
2022/09/14 06:15:32;;;;;;;1999.90;999.90;;;13.90;99.90;;;;;;5055706;28;20450;-65
2022/09/14 06:17:58;;;;;;;1999.90;999.90;;;13.90;99.90;;;;;;5071316;28;20035;-65
2022/09/14 06:20:23;;;;;;;1999.90;999.90;;;14.00;99.90;;;;;;5092293;28;20055;-65
2022/09/14 06:22:49;;;;;;;1999.90;999.90;;;14.10;99.90;;;;;;5090045;28;20036;-65
2022/09/14 06:25:15;;;;;;;1999.90;999.90;;;14.20;99.90;;;;;;5060125;28;20036;-65
2022/09/14 06:27:40;;;;;;;1999.90;999.90;;;14.30;99.90;;;;;;5055443;28;20142;-65
2022/09/14 06:30:06;;;;;;;1999.90;999.90;;;14.30;99.90;;;;;;5068742;28;20126;-65
2022/09/14 06:32:32;;;;;;;1999.90;999.90;;;14.40;99.90;;;;;;5052025;28;20048;-65
2022/09/14 06:34:57;;;;;;;1999.90;999.90;;;14.50;99.90;;;;;;5059688;28;20058;-65
2022/09/14 06:37:23;;;;;;;1999.90;999.90;;;14.60;99.90;;;;;;5068829;28;20046;-65
2022/09/14 06:39:48;;;;;;;1999.90;999.90;;;14.70;99.90;;;;;;5070459;28;20174;-65
2022/09/14 06:42:14;;;;;;;1999.90;999.90;;;14.70;99.90;;;;;;5057047;28;20051;-65
2022/09/14 06:44:40;;;;;;;1999.90;999.90;;;14.90;99.90;;;;;;5087800;28;20048;-65
2022/09/14 06:47:06;;;;;;;1999.90;999.90;;;15.00;99.90;;;;;;5068372;28;20416;-65
2022/09/14 06:49:31;;;;;;;1999.90;999.90;;;15.00;99.90;;;;;;5087619;28;20039;-65
2022/09/14 06:51:59;;;;;;;1999.90;999.90;;;15.20;99.90;;;;;;5090969;28;20100;-65
2022/09/14 06:54:25;;;;;;;1999.90;999.90;;;15.30;99.90;;;;;;5083988;28;20506;-65
2022/09/14 06:56:51;;;;;;;1999.90;999.90;;;15.40;99.90;;;;;;5070866;28;20036;-65
2022/09/14 06:59:18;;;;;;;1999.90;999.90;;;15.50;99.90;;;;;;5045767;28;20078;-65
2022/09/14 07:01:44;;;;;;;1999.90;999.90;;;15.60;99.90;;;;;;5055741;28;20040;-65
2022/09/14 07:04:10;;;;;;;1999.90;999.90;;;15.70;99.90;;;;;;5086139;28;20028;-65
2022/09/14 07:06:45;;;;;;;1999.90;999.90;;;15.80;99.90;;;;;;5056057;28;20174;-65
2022/09/14 07:09:11;;;;;;;1999.90;999.90;;;15.90;99.90;;;;;;5072264;28;20067;-65
2022/09/14 07:11:37;;;;;;;1999.90;999.90;;;16.00;99.90;;;;;;5066139;28;20036;-65
2022/09/14 07:14:03;;;;;;;1999.90;999.90;;;16.10;99.90;;;;;;5077801;28;20051;-65
2022/09/14 07:16:30;;;;;;;1999.90;999.90;;;16.20;99.90;;;;;;5070179;28;20031;-65
2022/09/14 07:18:58;;;;;;;1999.90;999.90;;;16.30;99.90;;;;;;5075543;28;20039;-65
2022/09/14 07:21:24;;;;;;;1999.90;999.90;;;16.40;99.90;;;;;;5070946;28;20495;-65
2022/09/14 07:23:50;;;;;;;1999.90;999.90;;;16.50;99.90;;;;;;5077438;28;21179;-65
2022/09/14 07:26:20;;;;;;;1999.90;999.90;;;16.50;99.90;;;;;;5075909;28;20044;-65
2022/09/14 07:28:49;;;;;;;1999.90;999.90;;;16.60;99.90;;;;;;5072724;28;20088;-65
2022/09/14 07:31:14;;;;;;;1999.90;999.90;;;16.60;99.90;;;;;;5058536;28;20078;-65
2022/09/14 07:33:40;;;;;;;1999.90;999.90;;;16.70;99.90;;;;;;5085965;28;20082;-65
2022/09/14 07:36:07;;;;;;;1999.90;999.90;;;16.70;99.90;;;;;;5062004;28;20138;-65
2022/09/14 07:38:33;;;;;;;1999.90;999.90;;;16.80;99.90;;;;;;5099130;28;20078;-65
2022/09/14 07:40:59;;;;;;;1999.90;999.90;;;16.90;99.90;;;;;;5072243;28;20040;-65
2022/09/14 07:43:25;;;;;;;1999.90;999.90;;;16.90;99.90;;;;;;5070200;28;20545;-66
2022/09/14 07:45:51;;;;;;;1999.90;999.90;;;17.00;99.90;;;;;;5055293;28;20048;-66
2022/09/14 07:48:17;;;;;;;1999.90;999.90;;;17.10;99.90;;;;;;5051884;28;20063;-66
2022/09/14 07:50:42;;;;;;;1999.90;999.90;;;17.20;99.90;;;;;;5070658;28;20058;-65
2022/09/14 07:53:08;;;;;;;1999.90;999.90;;;17.30;99.90;;;;;;5070964;28;20131;-65
2022/09/14 07:55:37;;;;;;;1999.90;999.90;;;17.40;99.90;;;;;;5042432;28;20055;-66
2022/09/14 07:58:02;;;;;;;1999.90;999.90;;;17.50;99.90;;;;;;5083182;28;20044;-65
2022/09/14 08:00:28;;;;;;;1999.90;999.90;;;17.50;99.90;;;;;;5084387;28;20035;-65
2022/09/14 08:02:54;;;;;;;1999.90;999.90;;;17.50;99.90;;;;;;5074279;28;20135;-65
2022/09/14 08:05:21;;;;;;;1999.90;999.90;;;17.50;99.90;;;;;;5092724;28;20040;-65
2022/09/14 08:07:46;;;;;;;1999.90;999.90;;;17.50;99.90;;;;;;5072721;28;20047;-66
2022/09/14 08:10:12;;;;;;;1999.90;999.90;;;17.60;99.90;;;;;;5087370;28;20040;-65
2022/09/14 08:12:38;;;;;;;1999.90;999.90;;;17.70;99.90;;;;;;5074257;28;20048;-65
2022/09/14 08:15:04;;;;;;;1999.90;999.90;;;17.70;99.90;;;;;;5071344;28;20059;-66
2022/09/14 08:17:30;;;;;;;1999.90;999.90;;;17.80;99.90;;;;;;5086368;28;20138;-65
2022/09/14 08:19:55;;;;;;;1999.90;999.90;;;17.80;99.90;;;;;;5082957;28;20633;-65
2022/09/14 08:22:21;;;;;;;1999.90;999.90;;;17.80;99.90;;;;;;5077769;28;20070;-65
2022/09/14 08:24:47;;;;;;;1999.90;999.90;;;17.70;99.90;;;;;;5075641;28;20137;-65
2022/09/14 08:27:12;;;;;;;1999.90;999.90;;;17.80;99.90;;;;;;5056168;28;20044;-65
2022/09/14 08:29:38;;;;;;;1999.90;999.90;;;17.80;99.90;;;;;;5106951;28;20039;-66
2022/09/14 08:32:04;;;;;;;1999.90;999.90;;;18.00;99.90;;;;;;5070984;28;20060;-65
2022/09/14 08:34:30;;;;;;;1999.90;999.90;;;18.10;99.90;;;;;;5070495;28;20069;-65
2022/09/14 08:36:55;;;;;;;1999.90;999.90;;;18.20;99.90;;;;;;5088701;28;20118;-66
2022/09/14 08:39:21;;;;;;;1999.90;999.90;;;18.30;99.90;;;;;;5080947;28;20035;-65
2022/09/14 08:41:59;;;;;;;1999.90;999.90;;;18.50;99.90;;;;;;5089234;28;20036;-65
2022/09/14 08:44:47;;;;;;;1999.90;999.90;;;18.60;99.90;;;;;;5085470;28;20049;-66
2022/09/14 08:47:34;;;;;;;1999.90;999.90;;;18.70;99.90;;;;;;5070346;28;20605;-66
2022/09/14 08:50:13;;;;;;;1999.90;999.90;;;19.00;99.90;;;;;;5071337;28;20044;-66
2022/09/14 08:52:45;;;;;;;1999.90;999.90;;;19.10;99.90;;;;;;5074615;28;20043;-65
2022/09/14 08:55:26;;;;;;;1999.90;999.90;;;19.60;99.90;;;;;;5050606;28;20047;-66
2022/09/14 08:58:05;;;;;;;1999.90;999.90;;;20.40;99.90;;;;;;5088695;28;20040;-66
2022/09/14 09:00:41;;;;;;;1999.90;999.90;;;21.10;99.90;;;;;;5063332;28;20047;-66
2022/09/14 09:03:20;;;;;;;1999.90;999.90;;;22.00;99.90;;;;;;5082979;28;20044;-66
2022/09/14 09:06:14;;;;;;;1999.90;999.90;;;22.70;99.90;;;;;;5093470;28;20124;-66
2022/09/14 09:09:04;;;;;;;1999.90;999.90;;;22.80;99.90;;;;;;5087724;28;20048;-66
2022/09/14 09:11:41;;;;;;;1999.90;999.90;;;22.10;99.90;;;;;;5085465;28;20444;-66
2022/09/14 09:14:20;;;;;;;1999.90;999.90;;;21.50;99.90;;;;;;5088430;28;20119;-66
2022/09/14 09:16:50;;;;;;;1999.90;999.90;;;21.10;99.90;;;;;;5054328;28;20032;-66
2022/09/14 09:19:27;;;;;;;1999.90;999.90;;;20.80;99.90;;;;;;5066493;28;20032;-66
2022/09/14 09:21:53;;;;;;;1999.90;999.90;;;20.60;99.90;;;;;;5081818;28;20048;-66
2022/09/14 09:24:28;;;;;;;1999.90;999.90;;;20.50;99.90;;;;;;5088530;28;20028;-66
2022/09/14 09:26:54;;;;;;;1999.90;999.90;;;20.50;99.90;;;;;;5081933;28;20496;-66
2022/09/14 09:29:20;;;;;;;1999.90;999.90;;;20.70;99.90;;;;;;5064441;28;20055;-66
2022/09/14 09:31:51;;;;;;;1999.90;999.90;;;20.80;99.90;;;;;;5069524;28;20052;-66
2022/09/14 09:34:24;;;;;;;1999.90;999.90;;;21.00;99.90;;;;;;5056593;28;20039;-66
2022/09/14 09:36:50;;;;;;;1999.90;999.90;;;21.20;99.90;;;;;;5088348;28;20040;-66
2022/09/14 09:39:16;;;;;;;1999.90;999.90;;;21.30;99.90;;;;;;5069698;28;20885;-66
2022/09/14 09:42:02;;;;;;;1999.90;999.90;;;21.20;99.90;;;;;;5061258;28;20040;-66
2022/09/14 09:44:28;;;;;;;1999.90;999.90;;;21.70;99.90;;;;;;5067142;28;20040;-66
2022/09/14 09:46:56;;;;;;;1999.90;999.90;;;22.50;99.90;;;;;;5065683;28;20036;-66
2022/09/14 09:49:29;;;;;;;1999.90;999.90;;;22.80;99.90;;;;;;5066551;28;20032;-66
2022/09/14 09:51:55;;;;;;;1999.90;999.90;;;22.50;99.90;;;;;;5069241;28;20040;-66
2022/09/14 09:54:30;;;;;;;1999.90;999.90;;;22.20;99.90;;;;;;5084815;28;20039;-66
2022/09/14 09:57:01;;;;;;;1999.90;999.90;;;22.10;99.90;;;;;;5076703;28;20476;-66
2022/09/14 09:59:45;;;;;;;1999.90;999.90;;;22.10;99.90;;;;;;5084423;28;20089;-66
2022/09/14 10:02:29;;;;;;;1999.90;999.90;;;22.00;99.90;;;;;;5054587;28;20073;-66
2022/09/14 10:05:08;;;;;;;1999.90;999.90;;;21.80;99.90;;;;;;5070574;28;20078;-66
2022/09/14 10:07:38;;;;;;;1999.90;999.90;;;21.70;99.90;;;;;;5076829;28;20090;-66
2022/09/14 10:10:07;;;;;;;1999.90;999.90;;;21.60;99.90;;;;;;5073560;28;20101;-66
2022/09/14 10:12:35;;;;;;;1999.90;999.90;;;21.60;99.90;;;;;;5077040;28;20557;-66
2022/09/14 10:15:04;;;;;;;1999.90;999.90;;;21.40;99.90;;;;;;5066669;28;20052;-66
2022/09/14 10:17:30;;;;;;;1999.90;999.90;;;21.30;99.90;;;;;;5066124;28;20036;-66
2022/09/14 10:19:57;;;;;;;1999.90;999.90;;;21.30;99.90;;;;;;5063876;28;20089;-66
2022/09/14 10:22:33;;;;;;;1999.90;999.90;;;21.40;99.90;;;;;;5085919;28;20324;-66
2022/09/14 10:25:12;;;;;;;1999.90;999.90;;;21.30;99.90;;;;;;5069999;28;20044;-66
2022/09/14 10:27:39;;;;;;;1999.90;999.90;;;21.20;99.90;;;;;;5089582;28;20051;-66
2022/09/14 10:30:16;;;;;;;1999.90;999.90;;;21.10;99.90;;;;;;5085654;28;20048;-66
2022/09/14 10:33:04;;;;;;;1999.90;999.90;;;21.00;99.90;;;;;;5071344;28;20155;-66
2022/09/14 10:35:48;;;;;;;1999.90;999.90;;;21.00;99.90;;;;;;5085428;28;20047;-66
2022/09/14 10:38:23;;;;;;;1999.90;999.90;;;21.00;99.90;;;;;;5060072;28;20043;-66
2022/09/14 10:40:57;;;;;;;1999.90;999.90;;;21.10;99.90;;;;;;5083549;28;20491;-66
2022/09/14 10:43:37;;;;;;;1999.90;999.90;;;21.00;99.90;;;;;;5074937;28;20422;-66
2022/09/14 10:46:08;;;;;;;1999.90;999.90;;;21.00;99.90;;;;;;5072037;28;20051;-66
2022/09/14 10:48:42;;;;;;;1999.90;999.90;;;21.00;99.90;;;;;;5083609;28;20105;-66
2022/09/14 10:51:28;;;;;;;1999.90;999.90;;;21.00;99.90;;;;;;5068222;28;20036;-66
2022/09/14 10:54:26;;;;;;;1999.90;999.90;;;21.10;99.90;;;;;;5055385;28;20047;-66
2022/09/14 10:57:35;;;;;;;1999.90;999.90;;;21.10;99.90;;;;;;5071681;28;20047;-66
2022/09/14 11:00:18;;;;;;;1999.90;999.90;;;21.10;99.90;;;;;;5088866;28;20044;-66
2022/09/14 11:02:54;;;;;;;1999.90;999.90;;;21.10;99.90;;;;;;5059968;28;20048;-66
2022/09/14 11:05:26;;;;;;;1999.90;999.90;;;21.00;99.90;;;;;;5059205;28;20047;-66
2022/09/14 11:07:54;;;;;;;1999.90;999.90;;;21.00;99.90;;;;;;5074780;28;20040;-66
2022/09/14 11:10:26;;;;;;;1999.90;999.90;;;21.10;99.90;;;;;;5058265;28;20725;-66
2022/09/14 11:13:24;;;;;;;1999.90;999.90;;;21.00;99.90;;;;;;5090848;28;20404;-65
2022/09/14 11:16:24;;;;;;;1999.90;999.90;;;21.10;99.90;;;;;;5067547;28;20136;-66
2022/09/14 11:19:08;;;;;;;1999.90;999.90;;;21.20;99.90;;;;;;5059573;28;20033;-66
2022/09/14 11:21:52;;;;;;;1999.90;999.90;;;21.40;99.90;;;;;;5067469;28;20048;-66
2022/09/14 11:24:40;;;;;;;1999.90;999.90;;;21.50;99.90;;;;;;5049170;28;20476;-66
2022/09/14 11:27:20;;;;;;;1999.90;999.90;;;21.60;99.90;;;;;;5041062;28;20044;-65
2022/09/14 11:29:52;;;;;;;1999.90;999.90;;;21.60;99.90;;;;;;5082217;28;20028;-66
2022/09/14 11:32:44;;;;;;;1999.90;999.90;;;21.70;99.90;;;;;;5064617;28;20519;-66
2022/09/14 11:35:29;;;;;;;1999.90;999.90;;;21.90;99.90;;;;;;5070519;28;20532;-65
2022/09/14 11:38:13;;;;;;;1999.90;999.90;;;22.10;99.90;;;;;;5065596;28;21092;-66
2022/09/14 11:40:46;;;;;;;1999.90;999.90;;;22.20;99.90;;;;;;5081838;28;20049;-66
2022/09/14 11:43:24;;;;;;;1999.90;999.90;;;22.20;99.90;;;;;;5059618;28;20040;-66
2022/09/14 11:45:54;;;;;;;1999.90;999.90;;;22.40;99.90;;;;;;5078556;28;20067;-66
2022/09/14 11:48:35;;;;;;;1999.90;999.90;;;22.60;99.90;;;;;;5065223;28;20040;-65
2022/09/14 11:51:31;;;;;;;1999.90;999.90;;;22.80;99.90;;;;;;5060884;28;20052;-66
2022/09/14 11:53:57;;;;;;;1999.90;999.90;;;23.00;99.90;;;;;;5080828;28;20111;-66
2022/09/14 11:56:32;;;;;;;1999.90;999.90;;;23.10;99.90;;;;;;5079479;28;20180;-66
2022/09/14 11:59:05;;;;;;;1999.90;999.90;;;23.30;99.90;;;;;;5055394;28;20097;-66
2022/09/14 12:01:37;;;;;;;1999.90;999.90;;;23.40;99.90;;;;;;5068769;28;20221;-66
2022/09/14 12:04:15;;;;;;;1999.90;999.90;;;23.30;99.90;;;;;;5082390;28;20036;-66
2022/09/14 12:06:44;;;;;;;1999.90;999.90;;;23.20;99.90;;;;;;5078520;28;20045;-66
2022/09/14 12:09:16;;;;;;;1999.90;999.90;;;22.90;99.90;;;;;;5072031;28;20071;-66
2022/09/14 12:11:43;;;;;;;1999.90;999.90;;;22.90;99.90;;;;;;5060952;28;20048;-66
2022/09/14 12:14:30;;;;;;;1999.90;999.90;;;22.90;99.90;;;;;;5071836;28;20063;-66
2022/09/14 12:17:21;;;;;;;1999.90;999.90;;;22.90;97.90;;;;;;5083957;28;20031;-66
2022/09/14 12:19:50;;;;;;;1999.90;999.90;;;22.80;99.80;;;;;;5037384;28;20048;-66